DGPHX EDDN-EDDN

Flight info

Callsign DGPHX
Flight time 0h 22m
Altitude 5000
Route /
Aircraft DA62/L-SDE3/YES

Departure

Time 2026-04-29 15:05
Airport Nuremberg Airport (EDDN)

Arrival

Time 2026-04-29 15:27
Airport Nuremberg Airport (EDDN)
Time Latitude Longitude Altitude Speed Heading
2026-04-29 14:51 49.49554 11.07037 1019 ft 0 kts
2026-04-29 14:57 49.49591 11.07081 1019 ft 14 kts 99°
2026-04-29 14:57 49.49583 11.07156 1020 ft 0 kts 86°
2026-04-29 14:58 49.49615 11.07215 1021 ft 13 kts
2026-04-29 14:58 49.49731 11.07209 1020 ft 14 kts 310°
2026-04-29 14:59 49.49788 11.07070 1016 ft 21 kts 339°
2026-04-29 14:59 49.49849 11.07033 1016 ft 0 kts 329°
2026-04-29 15:03 49.49858 11.07026 1016 ft 8 kts 337°
2026-04-29 15:03 49.49939 11.07064 1017 ft 12 kts 76°
2026-04-29 15:04 49.49940 11.07097 1018 ft 0 kts 93°
2026-04-29 15:05 49.49914 11.07384 1024 ft 58 kts 99°
2026-04-29 15:05 49.49838 11.08173 1099 ft 89 kts 96°
2026-04-29 15:05 49.49758 11.09122 1479 ft 87 kts 91°
2026-04-29 15:05 49.49677 11.10069 1787 ft 99 kts 90°
2026-04-29 15:06 49.49936 11.10894 2055 ft 94 kts 22°
2026-04-29 15:06 49.50616 11.11007 2114 ft 100 kts 11°
2026-04-29 15:06 49.51281 11.10658 2129 ft 120 kts 315°
2026-04-29 15:06 49.51545 11.09372 2121 ft 131 kts 283°
2026-04-29 15:07 49.51657 11.07964 2140 ft 135 kts 279°
2026-04-29 15:07 49.51714 11.06517 2124 ft 141 kts 274°
2026-04-29 15:07 49.51742 11.04962 2173 ft 146 kts 273°
2026-04-29 15:07 49.51721 11.03454 2259 ft 143 kts 270°
2026-04-29 15:08 49.51733 11.01908 2183 ft 148 kts 275°
2026-04-29 15:08 49.51793 11.00349 2244 ft 143 kts 277°
2026-04-29 15:08 49.51912 10.98853 2356 ft 140 kts 284°
2026-04-29 15:08 49.51951 10.97405 2520 ft 133 kts 223°
2026-04-29 15:09 49.51162 10.97315 2461 ft 125 kts 124°
2026-04-29 15:09 49.50765 10.98589 2329 ft 133 kts 97°
2026-04-29 15:09 49.50647 10.99824 2067 ft 105 kts 88°
2026-04-29 15:09 49.50559 11.00836 1752 ft 80 kts 93°
2026-04-29 15:10 49.50449 11.01689 1595 ft 81 kts 90°
2026-04-29 15:10 49.50378 11.02559 1434 ft 83 kts 88°
2026-04-29 15:10 49.50288 11.03423 1403 ft 84 kts 93°
2026-04-29 15:10 49.50221 11.04166 1343 ft 74 kts 93°
2026-04-29 15:11 49.50147 11.04997 1245 ft 82 kts 97°
2026-04-29 15:11 49.50067 11.05845 1344 ft 81 kts 95°
2026-04-29 15:11 49.49963 11.06805 1487 ft 98 kts 97°
2026-04-29 15:11 49.49827 11.07980 1536 ft 119 kts 94°
2026-04-29 15:12 49.49700 11.09302 1703 ft 130 kts 94°
2026-04-29 15:12 49.49624 11.10214 1851 ft 128 kts 92°
2026-04-29 15:12 49.50477 11.10961 2154 ft 129 kts
2026-04-29 15:12 49.51352 11.10665 2292 ft 138 kts 328°
2026-04-29 15:13 49.51737 11.09257 2361 ft 155 kts 282°
2026-04-29 15:13 49.51856 11.07566 2399 ft 162 kts 281°
2026-04-29 15:13 49.51930 11.05890 2745 ft 146 kts 274°
2026-04-29 15:13 49.52307 11.04703 2799 ft 111 kts 337°
2026-04-29 15:14 49.52951 11.04724 2771 ft 93 kts 49°
2026-04-29 15:14 49.52998 11.05649 2744 ft 102 kts 120°
2026-04-29 15:14 49.52286 11.05911 2751 ft 120 kts 192°
2026-04-29 15:14 49.51857 11.04907 2712 ft 118 kts 278°
2026-04-29 15:15 49.51998 11.03638 2575 ft 132 kts 288°
2026-04-29 15:15 49.52002 11.02245 2577 ft 132 kts 263°
2026-04-29 15:15 49.52130 11.00939 2461 ft 121 kts 291°
2026-04-29 15:15 49.52276 10.99721 2458 ft 113 kts 282°
2026-04-29 15:16 49.52326 10.98410 2386 ft 128 kts 275°
2026-04-29 15:16 49.52203 10.97178 2300 ft 107 kts 220°
2026-04-29 15:16 49.51535 10.96965 2081 ft 92 kts 178°
2026-04-29 15:16 49.50978 10.97301 1805 ft 86 kts 123°
2026-04-29 15:17 49.50812 10.98236 1701 ft 96 kts 89°
2026-04-29 15:17 49.50760 10.99211 1615 ft 87 kts 90°
2026-04-29 15:17 49.50657 11.00152 1540 ft 94 kts 95°
2026-04-29 15:17 49.50562 11.01180 1536 ft 100 kts 89°
2026-04-29 15:18 49.50415 11.02255 1505 ft 106 kts 89°
2026-04-29 15:18 49.50320 11.03401 1469 ft 99 kts 92°
2026-04-29 15:18 49.50224 11.04380 1342 ft 93 kts 93°
2026-04-29 15:18 49.50117 11.05381 1211 ft 94 kts 98°
2026-04-29 15:19 49.50020 11.06267 1044 ft 73 kts 93°
2026-04-29 15:19 49.49958 11.06946 1019 ft 58 kts 95°
2026-04-29 15:19 49.49883 11.07737 1061 ft 92 kts 98°
2026-04-29 15:19 49.49768 11.08804 1261 ft 105 kts 96°
2026-04-29 15:20 49.49653 11.09826 1766 ft 94 kts 92°
2026-04-29 15:20 49.49846 11.10716 2132 ft 101 kts 33°
2026-04-29 15:20 49.50631 11.10888 2289 ft 124 kts
2026-04-29 15:20 49.51540 11.10765 2398 ft 144 kts 339°
2026-04-29 15:21 49.51925 11.09334 2596 ft 162 kts 269°
2026-04-29 15:21 49.51743 11.07540 2621 ft 176 kts 265°
2026-04-29 15:21 49.51674 11.05630 2710 ft 182 kts 269°
2026-04-29 15:21 49.51649 11.03682 2916 ft 181 kts 271°
2026-04-29 15:22 49.51574 11.01857 2936 ft 154 kts 266°
2026-04-29 15:22 49.51065 11.00818 2671 ft 121 kts 180°
2026-04-29 15:22 49.50536 11.01461 2096 ft 101 kts 103°
2026-04-29 15:22 49.50391 11.02402 1702 ft 86 kts 94°
2026-04-29 15:23 49.50303 11.03264 1492 ft 80 kts 91°
2026-04-29 15:23 49.50225 11.04133 1342 ft 81 kts 95°
2026-04-29 15:23 49.50151 11.04954 1160 ft 80 kts 98°
2026-04-29 15:23 49.50065 11.05819 1053 ft 77 kts 96°
2026-04-29 15:24 49.49999 11.06526 1015 ft 60 kts 95°
2026-04-29 15:24 49.49919 11.07301 1108 ft 86 kts 97°
2026-04-29 15:24 49.49810 11.08257 1405 ft 96 kts 96°
2026-04-29 15:24 49.49694 11.09315 1719 ft 103 kts 92°
2026-04-29 15:25 49.49685 11.10441 1881 ft 101 kts 70°
2026-04-29 15:25 49.50237 11.11033 1938 ft 105 kts 19°
2026-04-29 15:25 49.51004 11.11253 1970 ft 116 kts 10°
2026-04-29 15:25 49.51693 11.10552 2032 ft 144 kts 297°
2026-04-29 15:26 49.51880 11.08961 2113 ft 161 kts 275°
2026-04-29 15:26 49.51994 11.07203 2120 ft 171 kts 278°
2026-04-29 15:26 49.51973 11.05330 2182 ft 174 kts 255°
2026-04-29 15:26 49.51246 11.04445 1896 ft 122 kts 182°
2026-04-29 15:27 49.50446 11.04343 1580 ft 112 kts 163°
2026-04-29 15:27 49.50129 11.05159 1241 ft 93 kts 96°
2026-04-29 15:27 49.50041 11.06060 1029 ft 77 kts 94°
2026-04-29 15:27 49.49988 11.06707 1014 ft 42 kts 103°
2026-04-29 15:28 49.49954 11.06962 1014 ft 13 kts 98°
2026-04-29 15:28 49.49949 11.06994 1015 ft 0 kts 112°
2026-04-29 15:28 49.49869 11.07020 1016 ft 10 kts 157°
2026-04-29 15:28 49.49851 11.07033 1016 ft 0 kts 159°
2026-04-29 15:30 49.49755 11.07053 1017 ft 13 kts 265°
2026-04-29 15:30 49.49776 11.06859 1014 ft 20 kts 278°
2026-04-29 15:30 49.49769 11.06786 1013 ft 17 kts 92°
2026-04-29 15:30 49.49749 11.07151 1019 ft 32 kts 103°
2026-04-29 15:31 49.49647 11.07221 1021 ft 27 kts 181°
2026-04-29 15:31 49.49509 11.07169 1020 ft 9 kts 259°
2026-04-29 15:31 49.49525 11.06941 1020 ft 10 kts 249°
2026-04-29 15:31 49.49480 11.06900 1020 ft 4 kts 269°
2026-04-29 15:32 49.49480 11.06899 1020 ft 0 kts 272°